Flight Track Log - Related Links

Times and Time Zones

All times are in EDT time to prevent confusion due to time zone crossing. See the UPS1121 flight status page for this flight to view local times or setup timezone preferences in your user account.

Time Position Orientation Groundspeed Altitude Reporting Facility
EDT Latitude Longitude Course Direction KTS MPH feet Rate Location/Type
Tue 09:54:34 PM 41.9375 -72.6942 203° Southwest 139 160 1,100  Level Boston Center
Tue 09:55:41 PM 41.8894 -72.7217 203° Southwest 195 224 3,200 2,489 Climbing Boston Center
Tue 09:56:49 PM 41.8250 -72.6686 148° Southeast 229 264 6,700 3,469 Climbing Boston Center
Tue 09:57:49 PM 41.7522 -72.6239 155° Southeast 270 311 10,600 1,919 Climbing Boston Center
Tue 10:03:48 PM 41.1740 -72.7130 155° Southeast 395 455 20,100 1,421 Climbing FlightAware ADS-B
Tue 10:04:30 PM 41.1030 -72.7390 195° South 394 453 20,100  Level FlightAware ADS-B
Tue 10:05:00 PM 41.0530 -72.7560 194° South 395 455 20,100  Level FlightAware ADS-B
Tue 10:05:42 PM 40.9430 -72.7960 195° South 394 453 20,100  Level FlightAware ADS-B
Tue 10:05:51 PM 40.9290 -72.8030 201° Southwest 393 452 20,100  Level FlightAware ADS-B
Tue 10:06:42 PM 40.8435 -72.8632 208° Southwest 392 451 20,100  Level FlightAware ADS-B
Tue 10:07:13 PM 40.7940 -72.8997 209° Southwest 392 451 20,100  Level FlightAware ADS-B
Tue 10:07:44 PM 40.7452 -72.9354 209° Southwest 393 452 20,100  Level FlightAware ADS-B
Tue 10:08:15 PM 40.6955 -72.9717 209° Southwest 394 453 20,100  Level FlightAware ADS-B
Tue 10:08:46 PM 40.6470 -73.0071 209° Southwest 394 453 20,100  Level FlightAware ADS-B
Tue 10:09:16 PM 40.5991 -73.0421 209° Southwest 394 453 20,100  Level FlightAware ADS-B
Tue 10:09:50 PM 40.5437 -73.0824 209° Southwest 394 453 20,100  Level FlightAware ADS-B
Tue 10:10:21 PM 40.4956 -73.1172 209° Southwest 393 452 20,100  Level FlightAware ADS-B
Tue 10:10:52 PM 40.4460 -73.1531 209° Southwest 393 452 20,100  Level FlightAware ADS-B
Tue 10:11:23 PM 40.3960 -73.1894 209° Southwest 394 453 20,100  Level FlightAware ADS-B
Tue 10:11:57 PM 40.3414 -73.2289 209° Southwest 394 453 20,100  Level FlightAware ADS-B
Tue 10:12:29 PM 40.2908 -73.2654 209° Southwest 394 453 20,100  Level FlightAware ADS-B
Tue 10:13:05 PM 40.2333 -73.3065 209° Southwest 394 453 20,100  Level FlightAware ADS-B
Tue 10:13:37 PM 40.1825 -73.3425 208° Southwest 394 453 20,100  Level FlightAware ADS-B
Tue 10:14:08 PM 40.1327 -73.3779 209° Southwest 394 453 20,100  Level FlightAware ADS-B
Tue 10:14:40 PM 40.0811 -73.4147 209° Southwest 394 453 20,100  Level FlightAware ADS-B
Tue 10:15:11 PM 40.0316 -73.4499 209° Southwest 394 453 20,100  Level FlightAware ADS-B
Tue 10:15:42 PM 39.9822 -73.4849 208° Southwest 394 453 20,100  Level FlightAware ADS-B
Tue 10:16:13 PM 39.9329 -73.5199 209° Southwest 394 453 20,100  Level FlightAware ADS-B
Tue 10:16:28 PM 39.9099 -73.5400 214° Southwest 392 451 20,100 -250 Level FlightAware ADS-B
Tue 10:16:37 PM 39.8969 -73.5543 220° Southwest 390 449 20,000  Descending FlightAware ADS-B
Tue 10:16:51 PM 39.8804 -73.5768 226° Southwest 388 447 20,100 136 Climbing FlightAware ADS-B
Tue 10:17:21 PM 39.8452 -73.6323 230° Southwest 387 445 20,100  Level FlightAware ADS-B
Tue 10:17:54 PM 39.8088 -73.6902 231° Southwest 388 447 20,100  Level FlightAware ADS-B
Tue 10:18:26 PM 39.7717 -73.7490 231° Southwest 387 445 20,100  Level FlightAware ADS-B
Tue 10:18:58 PM 39.7348 -73.8069 230° Southwest 388 447 20,100 -277 Level FlightAware ADS-B
Tue 10:19:31 PM 39.6978 -73.8653 231° Southwest 374 430 19,800 -1,219 Descending FlightAware ADS-B
Tue 10:20:02 PM 39.6645 -73.9178 231° Southwest 367 422 18,800 -2,262 Descending FlightAware ADS-B
Tue 10:20:32 PM 39.6319 -73.9693 231° Southwest 369 425 17,500 -2,400 Descending FlightAware ADS-B
Tue 10:21:02 PM 39.5995 -74.0201 230° Southwest 361 415 16,400 -2,200 Descending FlightAware ADS-B
Tue 10:21:32 PM 39.5676 -74.0699 230° Southwest 356 410 15,300 -2,160 Descending FlightAware ADS-B
Tue 10:21:52 PM 39.5469 -74.1026 231° Southwest 351 404 14,600 -2,143 Descending FlightAware ADS-B
Tue 10:22:00 PM 39.5400 -74.1154 235° Southwest 348 400 14,300 -2,000 Descending FlightAware ADS-B
Tue 10:22:10 PM 39.5329 -74.1335 243° Southwest 344 396 14,000 -1,143 Descending FlightAware ADS-B
Tue 10:22:21 PM 39.5274 -74.1567 253° West 340 391 13,900 -231 Descending FlightAware ADS-B
Tue 10:22:36 PM 39.5255 -74.1859 265° West 337 388 13,900 -400 Level FlightAware ADS-B
Tue 10:23:06 PM 39.5263 -74.2472 271° West 328 377 13,600 -1,279 Descending FlightAware ADS-B
Tue 10:23:37 PM 39.5277 -74.3069 272° West 321 369 12,600 -1,545 Descending FlightAware ADS-B
Tue 10:24:12 PM 39.5289 -74.3743 271° West 330 380 11,900 -1,068 Descending FlightAware ADS-B
Tue 10:24:50 PM 39.5299 -74.4489 271° West 330 380 11,300 -911 Descending FlightAware ADS-B
Tue 10:25:31 PM 39.5311 -74.5294 271° West 325 374 10,700 -966 Descending FlightAware ADS-B
Tue 10:26:17 PM 39.5326 -74.6152 271° West 302 348 9,900 -857 Descending FlightAware ADS-B
Tue 10:26:41 PM 39.5334 -74.6557 271° West 278 320 9,700 -769 Descending FlightAware ADS-B
Tue 10:26:56 PM 39.5338 -74.6808 271° West 273 314 9,400 -1,000 Descending FlightAware ADS-B
Tue 10:27:11 PM 39.5342 -74.7054 271° West 273 314 9,200 -800 Descending FlightAware ADS-B
Tue 10:27:26 PM 39.5347 -74.7301 272° West 272 313 9,000 -800 Descending FlightAware ADS-B
Tue 10:27:41 PM 39.5352 -74.7547 272° West 271 312 8,800 -444 Descending FlightAware ADS-B
Tue 10:27:53 PM 39.5355 -74.7744 271° West 270 311 8,800  Level FlightAware ADS-B
Tue 10:28:06 PM 39.5357 -74.7949 271° West 271 312 8,800  Level FlightAware ADS-B
Tue 10:28:21 PM 39.5360 -74.8198 271° West 272 313 8,800  Level FlightAware ADS-B
Tue 10:28:36 PM 39.5362 -74.8452 271° West 272 313 8,800  Level FlightAware ADS-B
Tue 10:28:52 PM 39.5366 -74.8706 271° West 271 312 8,800  Level FlightAware ADS-B
Tue 10:29:07 PM 39.5370 -74.8959 271° West 272 313 8,800  Level FlightAware ADS-B
Tue 10:29:22 PM 39.5373 -74.9208 271° West 274 315 8,800  Level FlightAware ADS-B
Tue 10:29:40 PM 39.5378 -74.9501 271° West 273 314 8,800  Level FlightAware ADS-B
Tue 10:29:55 PM 39.5387 -74.9743 273° West 270 311 8,800 -194 Level FlightAware ADS-B
Tue 10:30:11 PM 39.5410 -74.9992 277° West 268 308 8,700 -783 Descending FlightAware ADS-B
Tue 10:30:18 PM 39.5432 -75.0103 284° West 267 307 8,500 -1,304 Descending FlightAware ADS-B
Tue 10:30:34 PM 39.5494 -75.0344 288° West 267 307 8,200 -1,448 Descending FlightAware ADS-B
Tue 10:30:47 PM 39.5549 -75.0544 290° West 268 308 7,800 -1,680 Descending FlightAware ADS-B
Tue 10:30:59 PM 39.5602 -75.0732 290° West 269 310 7,500 -1,636 Descending FlightAware ADS-B
Tue 10:31:20 PM 39.5691 -75.1046 290° West 267 307 6,900 -1,565 Descending FlightAware ADS-B
Tue 10:31:45 PM 39.5799 -75.1422 290° West 266 306 6,300 -1,350 Descending FlightAware ADS-B
Tue 10:32:00 PM 39.5862 -75.1644 290° West 261 300 6,000 -968 Descending FlightAware ADS-B
Tue 10:32:16 PM 39.5925 -75.1874 290° West 262 302 5,800 -375 Descending FlightAware ADS-B
Tue 10:32:32 PM 39.5992 -75.2112 290° West 261 300 5,800  Level FlightAware ADS-B
Tue 10:32:48 PM 39.6056 -75.2343 290° West 261 300 5,800 -194 Level FlightAware ADS-B
Tue 10:33:03 PM 39.6119 -75.2565 290° West 258 297 5,700 -800 Descending FlightAware ADS-B
Tue 10:33:18 PM 39.6182 -75.2786 290° West 255 293 5,400 -1,355 Descending FlightAware ADS-B
Tue 10:33:34 PM 39.6249 -75.3018 291° West 254 292 5,000 -1,273 Descending FlightAware ADS-B
Tue 10:33:51 PM 39.6317 -75.3254 291° West 253 291 4,700 -1,313 Descending FlightAware ADS-B
Tue 10:34:06 PM 39.6381 -75.3474 291° West 253 291 4,300 -1,548 Descending FlightAware ADS-B
Tue 10:34:22 PM 39.6447 -75.3704 290° West 255 293 3,900 -938 Descending FlightAware ADS-B
Tue 10:34:38 PM 39.6511 -75.3921 291° West 251 289 3,800 -194 Descending FlightAware ADS-B
Tue 10:34:53 PM 39.6574 -75.4133 291° West 237 273 3,800  Level FlightAware ADS-B
Tue 10:35:09 PM 39.6633 -75.4329 291° West 221 254 3,800  Level FlightAware ADS-B
Tue 10:35:25 PM 39.6692 -75.4523 292° West 211 243 3,800  Level FlightAware ADS-B
Tue 10:35:40 PM 39.6744 -75.4695 291° West 203 234 3,800  Level FlightAware ADS-B
Tue 10:35:55 PM 39.6797 -75.4871 291° West 202 232 3,800  Level FlightAware ADS-B
Tue 10:36:11 PM 39.6854 -75.5054 292° West 204 235 3,800  Level FlightAware ADS-B
Tue 10:36:27 PM 39.6907 -75.5229 291° West 203 234 3,800  Level FlightAware ADS-B
Tue 10:36:42 PM 39.6960 -75.5402 292° West 205 236 3,800  Level FlightAware ADS-B
Tue 10:36:58 PM 39.7017 -75.5582 292° West 203 234 3,800  Level FlightAware ADS-B
Tue 10:37:15 PM 39.7077 -75.5775 292° West 204 235 3,800  Level FlightAware ADS-B
Tue 10:37:18 PM 39.7092 -75.5813 297° West 204 235 3,800  Level FlightAware ADS-B
Tue 10:37:22 PM 39.7116 -75.5858 305° West 207 238 3,800  Level FlightAware ADS-B
Tue 10:37:26 PM 39.7136 -75.5886 313° West 209 241 3,800  Level FlightAware ADS-B
Tue 10:37:29 PM 39.7160 -75.5912 320° Northwest 211 243 3,800  Level FlightAware ADS-B
Tue 10:37:32 PM 39.7185 -75.5933 327° Northwest 213 245 3,800  Level FlightAware ADS-B
Tue 10:37:35 PM 39.7214 -75.5952 333° Northwest 215 247 3,800 1,000 Level FlightAware ADS-B
Tue 10:37:38 PM 39.7244 -75.5966 340° North 216 249 3,900 600 Climbing FlightAware ADS-B
Tue 10:37:45 PM 39.7314 -75.5987 347° North 216 249 3,900 -273 Level FlightAware ADS-B
Tue 10:38:00 PM 39.7456 -75.6017 351° North 211 243 3,800 -231 Descending FlightAware ADS-B
Tue 10:38:11 PM 39.7561 -75.6037 352° North 207 238 3,800  Level FlightAware ADS-B
Tue 10:38:16 PM 39.7611 -75.6042 356° North 206 237 3,800  Level FlightAware ADS-B
Tue 10:38:21 PM 39.7657 -75.6037 North 207 238 3,800  Level FlightAware ADS-B
Tue 10:38:25 PM 39.7694 -75.6024 15° North 206 237 3,800  Level FlightAware ADS-B
Tue 10:38:28 PM 39.7720 -75.6010 22° Northeast 207 238 3,800 -857 Level FlightAware ADS-B
Tue 10:38:32 PM 39.7753 -75.5985 30° Northeast 205 236 3,700 -750 Descending FlightAware ADS-B
Tue 10:38:36 PM 39.7786 -75.5951 38° Northeast 204 235 3,700 -600 Level FlightAware ADS-B
Tue 10:38:42 PM 39.7826 -75.5900 44° Northeast 203 234 3,600 -1,091 Descending FlightAware ADS-B
Tue 10:38:58 PM 39.7923 -75.5765 47° Northeast 204 235 3,300 -1,043 Descending FlightAware ADS-B
Tue 10:39:05 PM 39.7970 -75.5698 48° Northeast 203 234 3,200 -1,091 Descending FlightAware ADS-B
Tue 10:39:09 PM 39.7994 -75.5659 51° Northeast 202 232 3,100 -1,333 Descending FlightAware ADS-B
Tue 10:39:14 PM 39.8017 -75.5612 58° Northeast 201 231 3,000 -1,500 Descending FlightAware ADS-B
Tue 10:39:17 PM 39.8033 -75.5573 62° Northeast 199 229 2,900 -1,000 Descending FlightAware ADS-B
Tue 10:39:20 PM 39.8043 -75.5541 68° East 197 227 2,900  Level FlightAware ADS-B
Tue 10:39:25 PM 39.8055 -75.5495 71° East 196 226 2,900  Level FlightAware ADS-B
Tue 10:39:28 PM 39.8065 -75.5451 74° East 196 226 2,900 -400 Level FlightAware ADS-B
Tue 10:39:40 PM 39.8092 -75.5320 75° East 195 224 2,800 -222 Descending FlightAware ADS-B
Tue 10:39:55 PM 39.8127 -75.5152 75° East 190 219 2,800  Level FlightAware ADS-B
Tue 10:40:06 PM 39.8150 -75.5037 75° East 187 215 2,800 250 Level FlightAware ADS-B
Tue 10:40:19 PM 39.8178 -75.4894 76° East 185 213 2,900 261 Climbing FlightAware ADS-B
Tue 10:40:29 PM 39.8201 -75.4781 75° East 183 211 2,900 -240 Level FlightAware ADS-B
Tue 10:40:44 PM 39.8234 -75.4621 75° East 185 213 2,800 -774 Descending FlightAware ADS-B
Tue 10:41:00 PM 39.8267 -75.4452 76° East 182 209 2,500 -968 Descending FlightAware ADS-B
Tue 10:41:15 PM 39.8300 -75.4292 75° East 179 206 2,300 -1,000 Descending FlightAware ADS-B
Tue 10:41:30 PM 39.8332 -75.4133 75° East 178 205 2,000 -968 Descending FlightAware ADS-B
Tue 10:41:46 PM 39.8363 -75.3975 76° East 178 205 1,800 -750 Descending FlightAware ADS-B
Tue 10:41:54 PM 39.8381 -75.3888 75° East 177 204 1,700 -1,043 Descending FlightAware ADS-B
Tue 10:42:09 PM 39.8412 -75.3734 75° East 168 193 1,400 -1,071 Descending FlightAware ADS-B
Tue 10:42:22 PM 39.8437 -75.3608 76° East 155 178 1,200 -828 Descending FlightAware ADS-B
Tue 10:42:38 PM 39.8465 -75.3475 75° East 138 159 1,000 -581 Descending FlightAware ADS-B
Tue 10:42:53 PM 39.8488 -75.3364 75° East 127 146 900 -522 Descending FlightAware ADS-B
Tue 10:43:01 PM 39.8499 -75.3305 76° East 123 142 800 -750 Descending FlightAware ADS-B
Tue 10:43:09 PM 39.8510 -75.3246 76° East 120 138 700 -783 Descending FlightAware ADS-B
Tue 10:43:24 PM 39.8531 -75.3139 76° East 118 136 500 -783 Descending FlightAware ADS-B
Tue 10:43:32 PM 39.8542 -75.3087 75° East 118 136 400 -500 Descending FlightAware ADS-B
Tue 10:43:48 PM 39.8563 -75.2976 76° East 115 132 300 -375 Descending FlightAware ADS-B

Login

Don't have an account? Register now (free) for customized features, flight alerts, and more!